sensor_id;sensor_type;location;lat;lon;timestamp;P1;durP1;ratioP1;P2;durP2;ratioP2
53108;SDS011;39007;53.090;6.074;2023-07-28T00:02:09;38.38;;;14.40;;
53108;SDS011;39007;53.090;6.074;2023-07-28T00:04:35;32.30;;;14.00;;
53108;SDS011;39007;53.090;6.074;2023-07-28T00:07:02;31.33;;;14.63;;
53108;SDS011;39007;53.090;6.074;2023-07-28T00:09:28;31.02;;;15.07;;
53108;SDS011;39007;53.090;6.074;2023-07-28T00:11:55;36.00;;;14.57;;
53108;SDS011;39007;53.090;6.074;2023-07-28T00:14:21;40.65;;;15.70;;
53108;SDS011;39007;53.090;6.074;2023-07-28T00:16:49;34.97;;;14.77;;
53108;SDS011;39007;53.090;6.074;2023-07-28T00:19:15;34.78;;;15.50;;
53108;SDS011;39007;53.090;6.074;2023-07-28T00:21:41;34.17;;;14.48;;
53108;SDS011;39007;53.090;6.074;2023-07-28T00:24:07;38.83;;;15.68;;
53108;SDS011;39007;53.090;6.074;2023-07-28T00:26:33;44.80;;;16.27;;
53108;SDS011;39007;53.090;6.074;2023-07-28T00:28:59;45.45;;;16.92;;
53108;SDS011;39007;53.090;6.074;2023-07-28T00:31:25;33.13;;;15.93;;
53108;SDS011;39007;53.090;6.074;2023-07-28T00:33:51;42.95;;;18.15;;
53108;SDS011;39007;53.090;6.074;2023-07-28T00:36:17;44.67;;;18.30;;
53108;SDS011;39007;53.090;6.074;2023-07-28T00:38:43;46.75;;;18.10;;
53108;SDS011;39007;53.090;6.074;2023-07-28T00:41:09;46.38;;;19.80;;
53108;SDS011;39007;53.090;6.074;2023-07-28T00:43:35;43.20;;;17.60;;
53108;SDS011;39007;53.090;6.074;2023-07-28T00:46:01;49.60;;;19.65;;
53108;SDS011;39007;53.090;6.074;2023-07-28T00:48:27;41.15;;;17.42;;
53108;SDS011;39007;53.090;6.074;2023-07-28T00:50:53;46.20;;;18.90;;
53108;SDS011;39007;53.090;6.074;2023-07-28T00:53:19;46.10;;;18.92;;
53108;SDS011;39007;53.090;6.074;2023-07-28T00:55:46;45.63;;;19.55;;
53108;SDS011;39007;53.090;6.074;2023-07-28T00:58:12;47.15;;;17.75;;
53108;SDS011;39007;53.090;6.074;2023-07-28T01:00:38;41.47;;;18.17;;
53108;SDS011;39007;53.090;6.074;2023-07-28T01:03:04;48.33;;;18.60;;
53108;SDS011;39007;53.090;6.074;2023-07-28T01:05:34;43.10;;;17.77;;
53108;SDS011;39007;53.090;6.074;2023-07-28T01:08:04;52.60;;;17.70;;
53108;SDS011;39007;53.090;6.074;2023-07-28T01:10:31;47.05;;;16.67;;
53108;SDS011;39007;53.090;6.074;2023-07-28T01:12:58;40.85;;;16.10;;
53108;SDS011;39007;53.090;6.074;2023-07-28T01:15:24;46.33;;;16.95;;
53108;SDS011;39007;53.090;6.074;2023-07-28T01:17:51;45.60;;;17.45;;
53108;SDS011;39007;53.090;6.074;2023-07-28T01:20:17;34.72;;;15.60;;
53108;SDS011;39007;53.090;6.074;2023-07-28T01:22:47;46.78;;;18.42;;
53108;SDS011;39007;53.090;6.074;2023-07-28T01:28:18;43.28;;;15.27;;
53108;SDS011;39007;53.090;6.074;2023-07-28T01:30:45;44.05;;;14.75;;
53108;SDS011;39007;53.090;6.074;2023-07-28T01:33:11;41.55;;;14.35;;
53108;SDS011;39007;53.090;6.074;2023-07-28T01:35:37;42.00;;;14.85;;
53108;SDS011;39007;53.090;6.074;2023-07-28T01:38:03;35.05;;;14.43;;
53108;SDS011;39007;53.090;6.074;2023-07-28T01:40:30;37.90;;;13.55;;
53108;SDS011;39007;53.090;6.074;2023-07-28T01:42:56;42.25;;;15.50;;
53108;SDS011;39007;53.090;6.074;2023-07-28T01:45:22;41.55;;;16.70;;
53108;SDS011;39007;53.090;6.074;2023-07-28T01:47:48;51.50;;;15.45;;
53108;SDS011;39007;53.090;6.074;2023-07-28T01:50:14;34.85;;;13.82;;
53108;SDS011;39007;53.090;6.074;2023-07-28T01:52:40;34.17;;;13.05;;
53108;SDS011;39007;53.090;6.074;2023-07-28T01:55:06;42.08;;;14.07;;
53108;SDS011;39007;53.090;6.074;2023-07-28T01:57:33;50.33;;;13.82;;
53108;SDS011;39007;53.090;6.074;2023-07-28T01:59:59;44.65;;;12.90;;
53108;SDS011;39007;53.090;6.074;2023-07-28T02:02:25;40.58;;;12.95;;
53108;SDS011;39007;53.090;6.074;2023-07-28T02:04:51;45.35;;;13.43;;
53108;SDS011;39007;53.090;6.074;2023-07-28T02:07:17;34.28;;;12.45;;
53108;SDS011;39007;53.090;6.074;2023-07-28T02:09:43;38.15;;;12.40;;
53108;SDS011;39007;53.090;6.074;2023-07-28T02:12:09;34.13;;;11.93;;
53108;SDS011;39007;53.090;6.074;2023-07-28T02:14:36;35.67;;;11.20;;
53108;SDS011;39007;53.090;6.074;2023-07-28T02:17:02;36.58;;;11.40;;
53108;SDS011;39007;53.090;6.074;2023-07-28T02:19:28;36.80;;;11.15;;
53108;SDS011;39007;53.090;6.074;2023-07-28T02:21:54;39.80;;;11.70;;
53108;SDS011;39007;53.090;6.074;2023-07-28T02:24:20;43.58;;;10.85;;
53108;SDS011;39007;53.090;6.074;2023-07-28T02:26:46;37.03;;;10.07;;
53108;SDS011;39007;53.090;6.074;2023-07-28T02:29:12;30.80;;;10.18;;
53108;SDS011;39007;53.090;6.074;2023-07-28T02:31:38;34.58;;;9.60;;
53108;SDS011;39007;53.090;6.074;2023-07-28T02:34:04;33.35;;;10.02;;
53108;SDS011;39007;53.090;6.074;2023-07-28T02:36:31;25.92;;;9.23;;
53108;SDS011;39007;53.090;6.074;2023-07-28T02:38:57;38.60;;;9.55;;
53108;SDS011;39007;53.090;6.074;2023-07-28T02:41:23;30.20;;;9.38;;
53108;SDS011;39007;53.090;6.074;2023-07-28T02:43:49;34.17;;;10.00;;
53108;SDS011;39007;53.090;6.074;2023-07-28T02:46:15;33.22;;;9.98;;
53108;SDS011;39007;53.090;6.074;2023-07-28T02:48:41;34.42;;;9.73;;
53108;SDS011;39007;53.090;6.074;2023-07-28T02:51:07;37.38;;;8.90;;
53108;SDS011;39007;53.090;6.074;2023-07-28T02:53:33;37.88;;;9.55;;
53108;SDS011;39007;53.090;6.074;2023-07-28T02:55:59;33.85;;;9.20;;
53108;SDS011;39007;53.090;6.074;2023-07-28T02:58:25;29.90;;;8.90;;
53108;SDS011;39007;53.090;6.074;2023-07-28T03:00:52;33.47;;;8.70;;
53108;SDS011;39007;53.090;6.074;2023-07-28T03:03:18;31.83;;;8.05;;
53108;SDS011;39007;53.090;6.074;2023-07-28T03:05:44;36.90;;;8.57;;
53108;SDS011;39007;53.090;6.074;2023-07-28T03:08:10;36.30;;;8.63;;
53108;SDS011;39007;53.090;6.074;2023-07-28T03:10:36;23.95;;;8.43;;
53108;SDS011;39007;53.090;6.074;2023-07-28T03:13:02;35.15;;;8.52;;
53108;SDS011;39007;53.090;6.074;2023-07-28T03:15:28;25.63;;;8.85;;
53108;SDS011;39007;53.090;6.074;2023-07-28T03:17:54;39.53;;;8.43;;
53108;SDS011;39007;53.090;6.074;2023-07-28T03:20:20;27.88;;;8.05;;
53108;SDS011;39007;53.090;6.074;2023-07-28T03:22:46;30.95;;;8.55;;
53108;SDS011;39007;53.090;6.074;2023-07-28T03:25:12;30.40;;;8.48;;
53108;SDS011;39007;53.090;6.074;2023-07-28T03:27:38;32.97;;;8.13;;
53108;SDS011;39007;53.090;6.074;2023-07-28T03:30:05;28.70;;;8.23;;
53108;SDS011;39007;53.090;6.074;2023-07-28T03:32:33;25.75;;;7.30;;
53108;SDS011;39007;53.090;6.074;2023-07-28T03:34:59;30.55;;;7.47;;
53108;SDS011;39007;53.090;6.074;2023-07-28T03:37:25;36.42;;;7.70;;
53108;SDS011;39007;53.090;6.074;2023-07-28T03:39:51;33.40;;;7.60;;
53108;SDS011;39007;53.090;6.074;2023-07-28T03:42:17;24.45;;;7.25;;
53108;SDS011;39007;53.090;6.074;2023-07-28T03:44:43;27.40;;;7.93;;
53108;SDS011;39007;53.090;6.074;2023-07-28T03:47:09;27.33;;;8.18;;
53108;SDS011;39007;53.090;6.074;2023-07-28T03:49:35;30.63;;;7.65;;
53108;SDS011;39007;53.090;6.074;2023-07-28T03:52:02;27.95;;;8.60;;
53108;SDS011;39007;53.090;6.074;2023-07-28T03:54:28;24.60;;;7.32;;
53108;SDS011;39007;53.090;6.074;2023-07-28T03:56:54;32.03;;;8.38;;
53108;SDS011;39007;53.090;6.074;2023-07-28T03:59:20;32.45;;;9.32;;
53108;SDS011;39007;53.090;6.074;2023-07-28T04:01:46;30.92;;;9.50;;
53108;SDS011;39007;53.090;6.074;2023-07-28T04:04:12;32.55;;;8.60;;
53108;SDS011;39007;53.090;6.074;2023-07-28T04:06:42;30.58;;;8.45;;
53108;SDS011;39007;53.090;6.074;2023-07-28T04:09:09;32.50;;;8.93;;
53108;SDS011;39007;53.090;6.074;2023-07-28T04:11:35;33.25;;;8.45;;
53108;SDS011;39007;53.090;6.074;2023-07-28T04:14:01;30.42;;;8.32;;
53108;SDS011;39007;53.090;6.074;2023-07-28T04:16:28;25.25;;;8.02;;
53108;SDS011;39007;53.090;6.074;2023-07-28T04:18:54;28.17;;;7.97;;
53108;SDS011;39007;53.090;6.074;2023-07-28T04:21:20;27.90;;;7.80;;
53108;SDS011;39007;53.090;6.074;2023-07-28T04:23:46;26.60;;;7.72;;
53108;SDS011;39007;53.090;6.074;2023-07-28T04:26:12;25.50;;;8.13;;
53108;SDS011;39007;53.090;6.074;2023-07-28T04:28:38;29.73;;;8.23;;
53108;SDS011;39007;53.090;6.074;2023-07-28T04:31:04;36.40;;;8.23;;
53108;SDS011;39007;53.090;6.074;2023-07-28T04:33:30;27.67;;;8.00;;
53108;SDS011;39007;53.090;6.074;2023-07-28T04:35:56;35.42;;;8.27;;
53108;SDS011;39007;53.090;6.074;2023-07-28T04:38:22;34.42;;;8.68;;
53108;SDS011;39007;53.090;6.074;2023-07-28T04:40:49;32.75;;;8.57;;
53108;SDS011;39007;53.090;6.074;2023-07-28T04:43:15;27.17;;;8.02;;
53108;SDS011;39007;53.090;6.074;2023-07-28T04:45:41;23.65;;;7.75;;
53108;SDS011;39007;53.090;6.074;2023-07-28T04:48:07;19.60;;;7.15;;
53108;SDS011;39007;53.090;6.074;2023-07-28T04:50:33;20.83;;;7.25;;
53108;SDS011;39007;53.090;6.074;2023-07-28T04:52:59;23.95;;;8.60;;
53108;SDS011;39007;53.090;6.074;2023-07-28T04:55:25;19.73;;;7.18;;
53108;SDS011;39007;53.090;6.074;2023-07-28T04:57:52;25.17;;;7.32;;
53108;SDS011;39007;53.090;6.074;2023-07-28T05:00:18;21.30;;;7.57;;
53108;SDS011;39007;53.090;6.074;2023-07-28T05:02:44;25.33;;;9.05;;
53108;SDS011;39007;53.090;6.074;2023-07-28T05:05:10;27.70;;;8.25;;
53108;SDS011;39007;53.090;6.074;2023-07-28T05:07:36;21.38;;;8.45;;
53108;SDS011;39007;53.090;6.074;2023-07-28T05:10:02;23.38;;;8.52;;
53108;SDS011;39007;53.090;6.074;2023-07-28T05:12:28;21.25;;;9.20;;
53108;SDS011;39007;53.090;6.074;2023-07-28T05:14:55;21.92;;;9.52;;
53108;SDS011;39007;53.090;6.074;2023-07-28T05:17:21;19.50;;;8.98;;
53108;SDS011;39007;53.090;6.074;2023-07-28T05:19:47;17.98;;;9.60;;
53108;SDS011;39007;53.090;6.074;2023-07-28T05:22:13;17.80;;;9.98;;
53108;SDS011;39007;53.090;6.074;2023-07-28T05:24:39;19.27;;;9.57;;
53108;SDS011;39007;53.090;6.074;2023-07-28T05:27:05;19.58;;;10.82;;
53108;SDS011;39007;53.090;6.074;2023-07-28T05:29:31;21.55;;;10.70;;
53108;SDS011;39007;53.090;6.074;2023-07-28T05:31:58;18.77;;;9.85;;
53108;SDS011;39007;53.090;6.074;2023-07-28T05:34:25;18.38;;;10.27;;
53108;SDS011;39007;53.090;6.074;2023-07-28T05:36:51;18.42;;;9.77;;
53108;SDS011;39007;53.090;6.074;2023-07-28T05:39:17;19.92;;;9.75;;
53108;SDS011;39007;53.090;6.074;2023-07-28T05:41:43;20.27;;;10.30;;
53108;SDS011;39007;53.090;6.074;2023-07-28T05:44:09;28.38;;;10.88;;
53108;SDS011;39007;53.090;6.074;2023-07-28T05:46:35;16.33;;;9.00;;
53108;SDS011;39007;53.090;6.074;2023-07-28T05:49:01;18.80;;;10.43;;
53108;SDS011;39007;53.090;6.074;2023-07-28T05:51:27;20.33;;;10.15;;
53108;SDS011;39007;53.090;6.074;2023-07-28T05:53:54;15.65;;;10.18;;
53108;SDS011;39007;53.090;6.074;2023-07-28T05:56:20;18.52;;;9.70;;
53108;SDS011;39007;53.090;6.074;2023-07-28T05:58:46;22.50;;;11.10;;
53108;SDS011;39007;53.090;6.074;2023-07-28T06:01:13;19.00;;;10.27;;
53108;SDS011;39007;53.090;6.074;2023-07-28T06:03:39;19.23;;;11.40;;
53108;SDS011;39007;53.090;6.074;2023-07-28T06:06:05;18.88;;;10.63;;
53108;SDS011;39007;53.090;6.074;2023-07-28T06:08:32;18.08;;;10.77;;
53108;SDS011;39007;53.090;6.074;2023-07-28T06:10:58;18.17;;;10.38;;
53108;SDS011;39007;53.090;6.074;2023-07-28T06:13:24;20.30;;;10.50;;
53108;SDS011;39007;53.090;6.074;2023-07-28T06:15:52;21.75;;;10.88;;
53108;SDS011;39007;53.090;6.074;2023-07-28T06:18:19;14.82;;;10.23;;
53108;SDS011;39007;53.090;6.074;2023-07-28T06:20:47;19.70;;;10.90;;
53108;SDS011;39007;53.090;6.074;2023-07-28T06:23:13;16.67;;;10.00;;
53108;SDS011;39007;53.090;6.074;2023-07-28T06:25:39;13.88;;;10.90;;
53108;SDS011;39007;53.090;6.074;2023-07-28T06:28:09;21.65;;;12.23;;
53108;SDS011;39007;53.090;6.074;2023-07-28T06:30:36;16.85;;;10.70;;
53108;SDS011;39007;53.090;6.074;2023-07-28T06:33:02;15.00;;;10.88;;
53108;SDS011;39007;53.090;6.074;2023-07-28T06:35:29;12.82;;;9.75;;
53108;SDS011;39007;53.090;6.074;2023-07-28T06:37:55;13.93;;;8.75;;
53108;SDS011;39007;53.090;6.074;2023-07-28T06:40:21;14.07;;;9.48;;
53108;SDS011;39007;53.090;6.074;2023-07-28T06:42:47;10.25;;;7.95;;
53108;SDS011;39007;53.090;6.074;2023-07-28T06:45:13;11.70;;;9.13;;
53108;SDS011;39007;53.090;6.074;2023-07-28T06:47:39;11.70;;;8.35;;
53108;SDS011;39007;53.090;6.074;2023-07-28T06:50:05;10.50;;;8.30;;
53108;SDS011;39007;53.090;6.074;2023-07-28T06:52:31;10.10;;;8.32;;
53108;SDS011;39007;53.090;6.074;2023-07-28T06:54:57;11.68;;;8.57;;
53108;SDS011;39007;53.090;6.074;2023-07-28T06:57:23;10.80;;;8.95;;
53108;SDS011;39007;53.090;6.074;2023-07-28T06:59:50;10.75;;;8.20;;
53108;SDS011;39007;53.090;6.074;2023-07-28T07:02:16;12.68;;;8.90;;
53108;SDS011;39007;53.090;6.074;2023-07-28T07:04:42;13.32;;;9.52;;
53108;SDS011;39007;53.090;6.074;2023-07-28T07:07:08;11.70;;;8.63;;
53108;SDS011;39007;53.090;6.074;2023-07-28T07:09:34;13.27;;;9.35;;
53108;SDS011;39007;53.090;6.074;2023-07-28T07:12:01;13.07;;;10.10;;
53108;SDS011;39007;53.090;6.074;2023-07-28T07:14:27;13.57;;;9.90;;
53108;SDS011;39007;53.090;6.074;2023-07-28T07:16:54;10.43;;;9.30;;
53108;SDS011;39007;53.090;6.074;2023-07-28T07:19:20;12.38;;;9.57;;
53108;SDS011;39007;53.090;6.074;2023-07-28T07:21:46;10.70;;;8.95;;
53108;SDS011;39007;53.090;6.074;2023-07-28T07:24:15;11.43;;;8.20;;
53108;SDS011;39007;53.090;6.074;2023-07-28T07:26:41;13.55;;;9.27;;
53108;SDS011;39007;53.090;6.074;2023-07-28T07:29:07;10.48;;;8.02;;
53108;SDS011;39007;53.090;6.074;2023-07-28T07:31:34;10.50;;;7.88;;
53108;SDS011;39007;53.090;6.074;2023-07-28T07:34:00;9.05;;;7.13;;
53108;SDS011;39007;53.090;6.074;2023-07-28T07:36:29;8.05;;;7.05;;
53108;SDS011;39007;53.090;6.074;2023-07-28T07:38:55;10.90;;;7.10;;
53108;SDS011;39007;53.090;6.074;2023-07-28T07:41:22;11.70;;;6.10;;
53108;SDS011;39007;53.090;6.074;2023-07-28T07:43:48;8.30;;;6.05;;
53108;SDS011;39007;53.090;6.074;2023-07-28T07:46:15;8.55;;;5.93;;
53108;SDS011;39007;53.090;6.074;2023-07-28T07:48:42;8.23;;;5.38;;
53108;SDS011;39007;53.090;6.074;2023-07-28T07:51:08;6.53;;;5.70;;
53108;SDS011;39007;53.090;6.074;2023-07-28T07:53:34;10.07;;;5.90;;
53108;SDS011;39007;53.090;6.074;2023-07-28T07:56:04;10.93;;;6.30;;
53108;SDS011;39007;53.090;6.074;2023-07-28T07:58:30;24.25;;;19.30;;
53108;SDS011;39007;53.090;6.074;2023-07-28T08:00:56;9.45;;;6.40;;
53108;SDS011;39007;53.090;6.074;2023-07-28T08:03:22;9.75;;;6.45;;
53108;SDS011;39007;53.090;6.074;2023-07-28T08:05:49;11.82;;;6.88;;
53108;SDS011;39007;53.090;6.074;2023-07-28T08:08:16;8.93;;;5.65;;
53108;SDS011;39007;53.090;6.074;2023-07-28T08:10:45;9.57;;;6.63;;
53108;SDS011;39007;53.090;6.074;2023-07-28T08:13:12;10.88;;;6.05;;
53108;SDS011;39007;53.090;6.074;2023-07-28T08:15:38;10.25;;;5.05;;
53108;SDS011;39007;53.090;6.074;2023-07-28T08:18:04;8.63;;;5.63;;
53108;SDS011;39007;53.090;6.074;2023-07-28T08:20:30;7.82;;;5.07;;
53108;SDS011;39007;53.090;6.074;2023-07-28T08:22:56;8.75;;;4.57;;
53108;SDS011;39007;53.090;6.074;2023-07-28T08:25:22;7.90;;;4.40;;
53108;SDS011;39007;53.090;6.074;2023-07-28T08:27:49;8.43;;;4.60;;
53108;SDS011;39007;53.090;6.074;2023-07-28T08:30:15;7.80;;;4.50;;
53108;SDS011;39007;53.090;6.074;2023-07-28T08:32:41;6.97;;;4.07;;
53108;SDS011;39007;53.090;6.074;2023-07-28T08:35:08;10.27;;;4.10;;
53108;SDS011;39007;53.090;6.074;2023-07-28T08:37:34;6.88;;;4.60;;
53108;SDS011;39007;53.090;6.074;2023-07-28T08:40:00;7.45;;;4.28;;
53108;SDS011;39007;53.090;6.074;2023-07-28T08:42:28;7.03;;;3.97;;
53108;SDS011;39007;53.090;6.074;2023-07-28T08:44:55;7.97;;;4.35;;
53108;SDS011;39007;53.090;6.074;2023-07-28T08:47:21;6.53;;;3.47;;
53108;SDS011;39007;53.090;6.074;2023-07-28T08:49:47;7.40;;;3.72;;
53108;SDS011;39007;53.090;6.074;2023-07-28T08:52:16;8.52;;;4.18;;
53108;SDS011;39007;53.090;6.074;2023-07-28T08:54:43;6.28;;;4.03;;
53108;SDS011;39007;53.090;6.074;2023-07-28T08:57:09;7.30;;;4.50;;
53108;SDS011;39007;53.090;6.074;2023-07-28T08:59:36;8.85;;;4.45;;
53108;SDS011;39007;53.090;6.074;2023-07-28T09:02:08;10.63;;;3.85;;
53108;SDS011;39007;53.090;6.074;2023-07-28T09:04:35;11.15;;;3.92;;
53108;SDS011;39007;53.090;6.074;2023-07-28T09:07:02;6.65;;;3.03;;
53108;SDS011;39007;53.090;6.074;2023-07-28T09:09:31;7.05;;;3.28;;
53108;SDS011;39007;53.090;6.074;2023-07-28T09:11:58;6.57;;;2.67;;
53108;SDS011;39007;53.090;6.074;2023-07-28T09:14:25;6.28;;;3.03;;
53108;SDS011;39007;53.090;6.074;2023-07-28T09:16:51;7.40;;;2.33;;
53108;SDS011;39007;53.090;6.074;2023-07-28T09:19:19;7.07;;;2.83;;
53108;SDS011;39007;53.090;6.074;2023-07-28T09:21:45;6.63;;;2.75;;
53108;SDS011;39007;53.090;6.074;2023-07-28T09:24:11;6.32;;;2.35;;
53108;SDS011;39007;53.090;6.074;2023-07-28T09:29:37;7.13;;;2.42;;
53108;SDS011;39007;53.090;6.074;2023-07-28T09:32:05;8.15;;;2.70;;
53108;SDS011;39007;53.090;6.074;2023-07-28T09:34:32;5.88;;;2.45;;
53108;SDS011;39007;53.090;6.074;2023-07-28T09:36:58;5.68;;;2.30;;
53108;SDS011;39007;53.090;6.074;2023-07-28T09:39:25;8.75;;;2.40;;
53108;SDS011;39007;53.090;6.074;2023-07-28T09:41:51;6.68;;;2.15;;
53108;SDS011;39007;53.090;6.074;2023-07-28T09:44:22;6.25;;;2.25;;
53108;SDS011;39007;53.090;6.074;2023-07-28T09:46:52;6.53;;;2.38;;
53108;SDS011;39007;53.090;6.074;2023-07-28T09:49:27;5.28;;;2.80;;
53108;SDS011;39007;53.090;6.074;2023-07-28T09:51:54;7.43;;;2.45;;
53108;SDS011;39007;53.090;6.074;2023-07-28T09:54:23;7.78;;;3.05;;
53108;SDS011;39007;53.090;6.074;2023-07-28T09:56:54;4.43;;;2.40;;
53108;SDS011;39007;53.090;6.074;2023-07-28T09:59:22;8.07;;;3.05;;
53108;SDS011;39007;53.090;6.074;2023-07-28T10:01:49;8.00;;;2.85;;
53108;SDS011;39007;53.090;6.074;2023-07-28T10:04:16;7.90;;;2.80;;
53108;SDS011;39007;53.090;6.074;2023-07-28T10:06:42;7.38;;;2.60;;
53108;SDS011;39007;53.090;6.074;2023-07-28T10:09:08;8.48;;;2.70;;
53108;SDS011;39007;53.090;6.074;2023-07-28T10:11:36;6.45;;;2.40;;
53108;SDS011;39007;53.090;6.074;2023-07-28T10:14:04;4.97;;;2.50;;
53108;SDS011;39007;53.090;6.074;2023-07-28T10:16:38;6.13;;;2.10;;
53108;SDS011;39007;53.090;6.074;2023-07-28T10:19:04;6.10;;;2.28;;
53108;SDS011;39007;53.090;6.074;2023-07-28T10:21:31;7.38;;;2.17;;
53108;SDS011;39007;53.090;6.074;2023-07-28T10:23:57;4.22;;;2.15;;
53108;SDS011;39007;53.090;6.074;2023-07-28T10:26:30;4.72;;;2.00;;
53108;SDS011;39007;53.090;6.074;2023-07-28T10:29:07;4.72;;;1.80;;
53108;SDS011;39007;53.090;6.074;2023-07-28T10:31:33;9.63;;;2.10;;
53108;SDS011;39007;53.090;6.074;2023-07-28T10:33:59;8.75;;;2.00;;
53108;SDS011;39007;53.090;6.074;2023-07-28T10:39:01;5.03;;;1.98;;
53108;SDS011;39007;53.090;6.074;2023-07-28T10:41:28;6.45;;;2.20;;
53108;SDS011;39007;53.090;6.074;2023-07-28T10:43:56;6.45;;;2.22;;
53108;SDS011;39007;53.090;6.074;2023-07-28T10:46:22;6.97;;;3.85;;
53108;SDS011;39007;53.090;6.074;2023-07-28T10:48:49;5.68;;;1.95;;
53108;SDS011;39007;53.090;6.074;2023-07-28T10:51:22;6.03;;;2.40;;
53108;SDS011;39007;53.090;6.074;2023-07-28T10:53:56;6.00;;;1.90;;
53108;SDS011;39007;53.090;6.074;2023-07-28T10:56:23;4.95;;;1.95;;
53108;SDS011;39007;53.090;6.074;2023-07-28T10:58:58;4.55;;;1.80;;
53108;SDS011;39007;53.090;6.074;2023-07-28T11:01:30;4.38;;;1.90;;
53108;SDS011;39007;53.090;6.074;2023-07-28T11:04:05;5.88;;;1.92;;
53108;SDS011;39007;53.090;6.074;2023-07-28T11:06:31;4.75;;;2.13;;
53108;SDS011;39007;53.090;6.074;2023-07-28T11:08:57;4.72;;;2.25;;
53108;SDS011;39007;53.090;6.074;2023-07-28T11:11:23;5.05;;;1.80;;
53108;SDS011;39007;53.090;6.074;2023-07-28T11:13:50;6.47;;;1.90;;
53108;SDS011;39007;53.090;6.074;2023-07-28T11:16:16;4.22;;;2.08;;
53108;SDS011;39007;53.090;6.074;2023-07-28T11:18:42;4.50;;;2.20;;
53108;SDS011;39007;53.090;6.074;2023-07-28T11:21:08;6.97;;;1.90;;
53108;SDS011;39007;53.090;6.074;2023-07-28T11:23:34;4.00;;;1.60;;
53108;SDS011;39007;53.090;6.074;2023-07-28T11:26:00;4.28;;;1.88;;
53108;SDS011;39007;53.090;6.074;2023-07-28T11:28:27;4.88;;;2.00;;
53108;SDS011;39007;53.090;6.074;2023-07-28T11:30:53;2.85;;;1.60;;
53108;SDS011;39007;53.090;6.074;2023-07-28T11:33:19;3.70;;;1.60;;
53108;SDS011;39007;53.090;6.074;2023-07-28T11:35:45;5.07;;;1.77;;
53108;SDS011;39007;53.090;6.074;2023-07-28T11:38:12;4.28;;;1.90;;
53108;SDS011;39007;53.090;6.074;2023-07-28T11:40:40;4.72;;;1.80;;
53108;SDS011;39007;53.090;6.074;2023-07-28T11:43:07;5.57;;;1.88;;
53108;SDS011;39007;53.090;6.074;2023-07-28T11:45:33;4.78;;;2.15;;
53108;SDS011;39007;53.090;6.074;2023-07-28T11:48:00;3.72;;;2.20;;
53108;SDS011;39007;53.090;6.074;2023-07-28T11:50:27;3.85;;;1.85;;
53108;SDS011;39007;53.090;6.074;2023-07-28T11:52:55;4.70;;;1.70;;
53108;SDS011;39007;53.090;6.074;2023-07-28T11:55:21;4.32;;;1.90;;
53108;SDS011;39007;53.090;6.074;2023-07-28T11:57:47;5.03;;;2.10;;
53108;SDS011;39007;53.090;6.074;2023-07-28T12:00:13;5.32;;;2.10;;
53108;SDS011;39007;53.090;6.074;2023-07-28T12:02:43;5.07;;;2.28;;
53108;SDS011;39007;53.090;6.074;2023-07-28T12:05:13;4.47;;;2.25;;
53108;SDS011;39007;53.090;6.074;2023-07-28T12:07:39;6.35;;;1.92;;
53108;SDS011;39007;53.090;6.074;2023-07-28T12:10:06;5.32;;;2.70;;
53108;SDS011;39007;53.090;6.074;2023-07-28T12:12:46;5.47;;;2.72;;
53108;SDS011;39007;53.090;6.074;2023-07-28T12:15:19;6.32;;;2.40;;
53108;SDS011;39007;53.090;6.074;2023-07-28T12:20:32;6.18;;;2.63;;
53108;SDS011;39007;53.090;6.074;2023-07-28T12:22:58;5.45;;;2.20;;
53108;SDS011;39007;53.090;6.074;2023-07-28T12:25:24;4.63;;;2.70;;
53108;SDS011;39007;53.090;6.074;2023-07-28T12:27:50;5.63;;;2.58;;
53108;SDS011;39007;53.090;6.074;2023-07-28T12:30:17;5.45;;;2.63;;
53108;SDS011;39007;53.090;6.074;2023-07-28T12:32:43;5.38;;;2.70;;
53108;SDS011;39007;53.090;6.074;2023-07-28T12:35:09;5.07;;;2.40;;
53108;SDS011;39007;53.090;6.074;2023-07-28T12:37:36;5.93;;;2.72;;
53108;SDS011;39007;53.090;6.074;2023-07-28T12:40:02;5.15;;;2.55;;
53108;SDS011;39007;53.090;6.074;2023-07-28T12:42:30;4.32;;;2.42;;
53108;SDS011;39007;53.090;6.074;2023-07-28T12:44:56;6.68;;;2.38;;
53108;SDS011;39007;53.090;6.074;2023-07-28T12:47:22;4.85;;;2.65;;
53108;SDS011;39007;53.090;6.074;2023-07-28T12:49:48;4.97;;;2.40;;
53108;SDS011;39007;53.090;6.074;2023-07-28T12:52:15;6.10;;;2.33;;
53108;SDS011;39007;53.090;6.074;2023-07-28T12:54:41;9.25;;;3.30;;
53108;SDS011;39007;53.090;6.074;2023-07-28T12:57:08;5.97;;;2.55;;
53108;SDS011;39007;53.090;6.074;2023-07-28T12:59:35;7.75;;;3.00;;
53108;SDS011;39007;53.090;6.074;2023-07-28T13:02:02;5.85;;;2.80;;
53108;SDS011;39007;53.090;6.074;2023-07-28T13:04:28;6.00;;;2.80;;
53108;SDS011;39007;53.090;6.074;2023-07-28T13:06:54;7.80;;;3.35;;
53108;SDS011;39007;53.090;6.074;2023-07-28T13:09:20;5.75;;;2.90;;
53108;SDS011;39007;53.090;6.074;2023-07-28T13:11:46;7.28;;;3.30;;
53108;SDS011;39007;53.090;6.074;2023-07-28T13:14:12;6.65;;;3.20;;
53108;SDS011;39007;53.090;6.074;2023-07-28T13:16:38;6.85;;;3.40;;
53108;SDS011;39007;53.090;6.074;2023-07-28T13:19:04;8.10;;;3.55;;
53108;SDS011;39007;53.090;6.074;2023-07-28T13:21:31;7.30;;;3.10;;
53108;SDS011;39007;53.090;6.074;2023-07-28T13:23:58;7.88;;;4.13;;
53108;SDS011;39007;53.090;6.074;2023-07-28T13:26:24;8.70;;;3.83;;
53108;SDS011;39007;53.090;6.074;2023-07-28T13:28:51;8.25;;;4.72;;
53108;SDS011;39007;53.090;6.074;2023-07-28T13:31:17;9.88;;;4.30;;
53108;SDS011;39007;53.090;6.074;2023-07-28T13:33:44;7.10;;;3.88;;
53108;SDS011;39007;53.090;6.074;2023-07-28T13:36:11;9.80;;;4.50;;
53108;SDS011;39007;53.090;6.074;2023-07-28T13:38:37;8.60;;;4.40;;
53108;SDS011;39007;53.090;6.074;2023-07-28T13:41:04;8.10;;;4.50;;
53108;SDS011;39007;53.090;6.074;2023-07-28T13:43:31;6.70;;;4.10;;
53108;SDS011;39007;53.090;6.074;2023-07-28T13:45:57;8.00;;;4.05;;
53108;SDS011;39007;53.090;6.074;2023-07-28T13:48:23;9.88;;;5.53;;
53108;SDS011;39007;53.090;6.074;2023-07-28T13:50:49;9.60;;;4.85;;
53108;SDS011;39007;53.090;6.074;2023-07-28T13:53:15;11.45;;;4.35;;
53108;SDS011;39007;53.090;6.074;2023-07-28T13:55:41;8.50;;;4.50;;
53108;SDS011;39007;53.090;6.074;2023-07-28T13:58:08;12.30;;;4.95;;
53108;SDS011;39007;53.090;6.074;2023-07-28T14:00:34;8.13;;;4.68;;
53108;SDS011;39007;53.090;6.074;2023-07-28T14:03:00;10.30;;;5.60;;
53108;SDS011;39007;53.090;6.074;2023-07-28T14:05:27;7.55;;;4.18;;
53108;SDS011;39007;53.090;6.074;2023-07-28T14:07:53;9.88;;;5.85;;
53108;SDS011;39007;53.090;6.074;2023-07-28T14:10:19;10.10;;;5.28;;
53108;SDS011;39007;53.090;6.074;2023-07-28T14:12:45;9.77;;;5.55;;
53108;SDS011;39007;53.090;6.074;2023-07-28T14:15:11;8.73;;;4.63;;
53108;SDS011;39007;53.090;6.074;2023-07-28T14:17:37;9.07;;;4.45;;
53108;SDS011;39007;53.090;6.074;2023-07-28T14:20:03;8.68;;;5.00;;
53108;SDS011;39007;53.090;6.074;2023-07-28T14:22:31;7.97;;;4.47;;
53108;SDS011;39007;53.090;6.074;2023-07-28T14:24:57;9.18;;;4.30;;
53108;SDS011;39007;53.090;6.074;2023-07-28T14:27:23;9.60;;;4.30;;
53108;SDS011;39007;53.090;6.074;2023-07-28T14:29:49;9.45;;;4.05;;
53108;SDS011;39007;53.090;6.074;2023-07-28T14:32:15;9.20;;;3.88;;
53108;SDS011;39007;53.090;6.074;2023-07-28T14:34:41;7.88;;;3.75;;
53108;SDS011;39007;53.090;6.074;2023-07-28T14:37:07;6.13;;;3.90;;
53108;SDS011;39007;53.090;6.074;2023-07-28T14:39:33;7.13;;;3.50;;
53108;SDS011;39007;53.090;6.074;2023-07-28T14:42:00;8.93;;;4.53;;
53108;SDS011;39007;53.090;6.074;2023-07-28T14:44:26;9.93;;;5.00;;
53108;SDS011;39007;53.090;6.074;2023-07-28T14:46:52;10.05;;;4.65;;